Time;durP1;ratioP1;P1;durP2;ratioP2;P2;SDS_P1;SDS_P2;PMS_P1;PMS_P2;Temp;Humidity;BMP_temperature;BMP_pressure;BME280_temperature;BME280_humidity;BME280_pressure;Samples;Min_cycle;Max_cycle;Signal;HPM_P1;HPM_P2
2021/12/26 00:00:59;;;;;;;3.78;1.80;;;-5.90;99.90;;;;;;5032490;28;20075;-75
2021/12/26 00:03:27;;;;;;;4.20;1.90;;;-5.90;99.90;;;;;;5039988;28;20048;-75
2021/12/26 00:05:54;;;;;;;4.18;1.73;;;-5.90;99.90;;;;;;5011884;28;20071;-76
2021/12/26 00:08:21;;;;;;;6.05;1.92;;;-5.10;99.90;;;;;;5012939;28;20053;-75
2021/12/26 00:10:48;;;;;;;4.28;1.73;;;-6.00;99.90;;;;;;5031702;28;20091;-76
2021/12/26 00:13:19;;;;;;;6.22;1.85;;;-5.90;99.90;;;;;;5050876;28;20084;-75
2021/12/26 00:15:45;;;;;;;3.97;2.03;;;-5.90;99.90;;;;;;5032617;28;20639;-75
2021/12/26 00:18:11;;;;;;;4.97;1.85;;;-5.90;99.90;;;;;;5013438;28;20450;-75
2021/12/26 00:20:37;;;;;;;;;;;-6.00;99.90;;;;;;5029484;28;20045;-75
2021/12/26 00:23:03;;;;;;;4.85;2.00;;;-6.00;99.90;;;;;;5012743;28;20282;-75
2021/12/26 00:25:29;;;;;;;5.38;2.13;;;-6.00;99.90;;;;;;4996655;28;20132;-75
2021/12/26 00:27:55;;;;;;;;;;;-6.00;99.90;;;;;;5013257;28;20096;-75
2021/12/26 00:30:21;;;;;;;3.97;1.80;;;-6.00;99.90;;;;;;5023855;28;20357;-75
2021/12/26 00:32:48;;;;;;;4.13;1.90;;;-6.00;99.90;;;;;;5032455;28;20095;-76
2021/12/26 00:35:16;;;;;;;2.83;1.67;;;-6.00;99.90;;;;;;5030184;28;20505;-77
2021/12/26 00:37:43;;;;;;;4.28;2.00;;;-5.20;99.90;;;;;;5020217;28;20128;-77
2021/12/26 00:40:11;;;;;;;9.20;2.00;;;-6.00;99.90;;;;;;5030742;28;20052;-75
2021/12/26 00:42:36;;;;;;;4.47;2.13;;;-6.00;99.90;;;;;;4995951;28;20049;-79
2021/12/26 00:45:04;;;;;;;;;;;-6.00;99.90;;;;;;5030400;28;20568;-75
2021/12/26 00:47:30;;;;;;;;;;;-6.00;99.90;;;;;;5034999;28;19962;-75
2021/12/26 00:49:57;;;;;;;5.07;2.03;;;-6.10;99.90;;;;;;5031796;28;19931;-80
2021/12/26 00:52:22;;;;;;;3.17;1.65;;;-4.40;99.90;;;;;;5045281;28;20079;-75
2021/12/26 00:54:48;;;;;;;;;;;-6.10;99.90;;;;;;5025140;28;20045;-75
2021/12/26 00:57:14;;;;;;;2.90;1.80;;;-6.10;99.90;;;;;;5019089;28;19928;-76
2021/12/26 00:59:39;;;;;;;;;;;-6.10;99.90;;;;;;5036903;28;20509;-76
2021/12/26 01:02:05;;;;;;;4.65;1.55;;;-6.10;99.90;;;;;;5036441;28;19920;-76
2021/12/26 01:04:30;;;;;;;;;;;-6.10;99.90;;;;;;5037447;28;20081;-76
2021/12/26 01:06:56;;;;;;;2.25;1.48;;;-6.10;99.90;;;;;;5034686;28;20825;-75
2021/12/26 01:09:26;;;;;;;;;;;-6.10;99.90;;;;;;5002470;28;20180;-75
2021/12/26 01:11:56;;;;;;;2.83;1.75;;;-6.10;99.90;;;;;;5035909;28;19921;-75
2021/12/26 01:14:27;;;;;;;2.55;1.40;;;-6.10;99.90;;;;;;5003672;28;20128;-75
2021/12/26 01:17:04;;;;;;;3.15;1.80;;;-6.10;99.90;;;;;;5046455;28;20075;-75
2021/12/26 01:19:38;;;;;;;;;;;-6.10;99.90;;;;;;5041351;28;20041;-76
2021/12/26 01:22:05;;;;;;;3.72;1.33;;;-5.30;99.90;;;;;;5017174;28;19928;-76
2021/12/26 01:24:30;;;;;;;5.00;1.90;;;-6.20;99.90;;;;;;5003051;28;20518;-77
2021/12/26 01:26:57;;;;;;;3.70;1.77;;;-6.10;99.90;;;;;;5035830;28;20490;-76
2021/12/26 01:29:23;;;;;;;;;;;-6.20;99.90;;;;;;5003351;28;20089;-76
2021/12/26 01:31:48;;;;;;;5.38;2.05;;;-6.20;99.90;;;;;;5018057;28;19925;-76
2021/12/26 01:34:14;;;;;;;;;;;-6.20;99.90;;;;;;5032834;28;20048;-76
2021/12/26 01:36:40;;;;;;;3.17;1.60;;;-6.20;99.90;;;;;;5022663;28;19921;-77
2021/12/26 01:39:08;;;;;;;5.07;1.70;;;-6.20;99.90;;;;;;5036645;28;20581;-76
2021/12/26 01:41:39;;;;;;;3.42;1.75;;;-6.30;99.90;;;;;;5002302;28;20060;-76
2021/12/26 01:44:08;;;;;;;2.50;1.50;;;-6.30;99.90;;;;;;5018537;28;20061;-76
2021/12/26 01:46:34;;;;;;;4.65;2.22;;;-6.30;99.90;;;;;;4999527;28;20050;-76
2021/12/26 01:49:05;;;;;;;;;;;-6.30;99.90;;;;;;5016975;28;20042;-76
2021/12/26 01:51:31;;;;;;;4.47;1.80;;;-6.30;99.90;;;;;;5033084;28;19968;-76
2021/12/26 01:53:58;;;;;;;;;;;-6.30;99.90;;;;;;5035637;28;20089;-76
2021/12/26 01:56:23;;;;;;;4.20;1.80;;;-6.30;99.90;;;;;;5036351;28;20008;-76
2021/12/26 01:58:49;;;;;;;;;;;-6.40;99.90;;;;;;5018647;28;20129;-76
2021/12/26 02:01:15;;;;;;;3.47;1.75;;;-6.40;99.90;;;;;;5025308;28;19921;-77
2021/12/26 02:03:41;;;;;;;;;;;-6.40;99.90;;;;;;5012058;28;20056;-76
2021/12/26 02:06:08;;;;;;;9.65;2.00;;;-6.40;99.90;;;;;;5011755;28;19931;-78
2021/12/26 02:08:35;;;;;;;3.42;1.73;;;-6.40;99.90;;;;;;5028794;28;20057;-76
2021/12/26 02:11:02;;;;;;;3.20;1.80;;;-6.40;99.90;;;;;;5027727;28;20060;-76
2021/12/26 02:13:33;;;;;;;4.55;2.30;;;-6.40;99.90;;;;;;5012382;28;20046;-76
2021/12/26 02:15:59;;;;;;;5.38;2.55;;;-6.40;99.90;;;;;;5012365;28;20056;-76
2021/12/26 02:18:25;;;;;;;3.78;1.90;;;-6.40;99.90;;;;;;5019580;28;20465;-76
2021/12/26 02:23:29;;;;;;;4.63;1.80;;;-6.40;99.90;;;;;;5031858;28;20061;-76
2021/12/26 02:28:45;;;;;;;6.60;2.22;;;-6.50;99.90;;;;;;5018361;28;20060;-76
2021/12/26 02:31:12;;;;;;;2.83;2.00;;;-6.50;99.90;;;;;;4998455;28;20046;-76
2021/12/26 02:33:38;;;;;;;3.40;1.60;;;-6.50;99.90;;;;;;5021292;28;20080;-76
2021/12/26 02:36:05;;;;;;;4.45;1.88;;;-6.50;99.90;;;;;;5031144;28;20041;-77
2021/12/26 02:38:31;;;;;;;4.68;2.13;;;-6.50;99.90;;;;;;5032451;28;20146;-76
2021/12/26 02:40:59;;;;;;;8.50;2.55;;;-6.50;99.90;;;;;;5030803;28;20180;-77
2021/12/26 02:43:29;;;;;;;4.30;1.90;;;-6.60;99.90;;;;;;5015294;28;20085;-77
2021/12/26 02:45:55;;;;;;;3.22;1.70;;;-6.60;99.90;;;;;;5026784;28;20155;-77
2021/12/26 02:48:21;;;;;;;9.27;2.40;;;-6.60;99.90;;;;;;5011670;28;20187;-77
2021/12/26 02:50:50;;;;;;;;;;;-6.60;99.90;;;;;;5011045;28;20128;-78
2021/12/26 02:53:20;;;;;;;4.88;1.98;;;-6.60;99.90;;;;;;5010889;28;19932;-77
2021/12/26 02:55:54;;;;;;;4.40;1.98;;;-6.60;99.90;;;;;;4997510;28;20056;-76
2021/12/26 02:58:21;;;;;;;6.78;2.30;;;-6.60;99.90;;;;;;5031590;28;20048;-77
2021/12/26 03:00:52;;;;;;;4.65;1.98;;;-6.70;99.90;;;;;;5031196;28;20080;-76
2021/12/26 03:03:18;;;;;;;3.50;2.25;;;-6.70;99.90;;;;;;5032303;28;20142;-77
2021/12/26 03:05:46;;;;;;;4.22;2.28;;;-6.60;99.90;;;;;;5031102;28;20191;-77
2021/12/26 03:08:16;;;;;;;3.67;2.05;;;-6.70;99.90;;;;;;5030051;28;20510;-77
2021/12/26 03:10:43;;;;;;;5.72;2.15;;;-6.70;99.90;;;;;;5017992;28;20057;-77
2021/12/26 03:13:11;;;;;;;4.18;1.70;;;-6.70;99.90;;;;;;4994276;28;20068;-76
2021/12/26 03:15:38;;;;;;;8.25;2.38;;;-6.70;99.90;;;;;;5011034;28;20057;-77
2021/12/26 03:18:04;;;;;;;3.05;1.90;;;-6.70;99.90;;;;;;5010689;28;20108;-76
2021/12/26 03:20:39;;;;;;;5.72;2.47;;;-6.70;99.90;;;;;;4993840;28;20050;-77
2021/12/26 03:23:07;;;;;;;6.00;2.22;;;-6.70;99.90;;;;;;4993869;28;20053;-77
2021/12/26 03:25:33;;;;;;;6.15;2.50;;;-6.60;99.90;;;;;;5011666;28;20042;-76
2021/12/26 03:28:01;;;;;;;4.82;2.03;;;-6.60;99.90;;;;;;5010695;28;20038;-77
2021/12/26 03:30:29;;;;;;;5.80;2.40;;;-6.70;99.90;;;;;;5029523;28;20064;-76
2021/12/26 03:32:57;;;;;;;5.50;2.08;;;-6.70;99.90;;;;;;5030837;28;20052;-76
2021/12/26 03:35:25;;;;;;;6.53;2.53;;;-6.60;99.90;;;;;;5009819;28;20073;-77
2021/12/26 03:37:52;;;;;;;4.80;1.88;;;-6.60;99.90;;;;;;5010565;28;20112;-77
2021/12/26 03:40:18;;;;;;;2.53;1.95;;;-6.60;99.90;;;;;;5011196;28;20206;-77
2021/12/26 03:42:43;;;;;;;;;;;-6.60;99.90;;;;;;5012112;28;20060;-77
2021/12/26 03:45:10;;;;;;;3.75;1.85;;;-6.60;99.90;;;;;;5013148;28;19921;-78
2021/12/26 03:47:37;;;;;;;4.13;2.20;;;-6.60;99.90;;;;;;5014181;28;20115;-77
2021/12/26 03:50:05;;;;;;;6.93;2.72;;;-6.60;99.90;;;;;;5030105;28;20066;-78
2021/12/26 03:52:31;;;;;;;7.22;3.10;;;-6.60;99.90;;;;;;4997143;28;20053;-77
2021/12/26 03:54:57;;;;;;;;;;;-6.60;99.90;;;;;;5014419;28;20071;-77
2021/12/26 03:57:23;;;;;;;4.90;2.03;;;-6.70;99.90;;;;;;5016144;28;20008;-77
2021/12/26 03:59:48;;;;;;;;;;;-6.70;99.90;;;;;;5034161;28;20044;-76
2021/12/26 04:02:15;;;;;;;4.47;2.10;;;-6.70;99.90;;;;;;5050370;28;19927;-77
2021/12/26 04:04:42;;;;;;;6.80;2.47;;;-6.70;99.90;;;;;;5033548;28;20076;-77
2021/12/26 04:07:10;;;;;;;4.22;2.00;;;-6.80;99.90;;;;;;5026853;28;20073;-77
2021/12/26 04:09:36;;;;;;;5.97;2.53;;;-6.70;99.90;;;;;;5024690;28;20098;-77
2021/12/26 04:12:01;;;;;;;;;;;-6.70;99.90;;;;;;5033005;28;20049;-80
2021/12/26 04:14:27;;;;;;;4.70;2.00;;;-6.70;99.90;;;;;;5017008;28;20065;-77
2021/12/26 04:16:53;;;;;;;;;;;-6.70;99.90;;;;;;5032484;28;20061;-76
2021/12/26 04:19:19;;;;;;;6.30;2.50;;;-6.70;99.90;;;;;;5045174;28;19975;-76
2021/12/26 04:21:44;;;;;;;;;;;-6.70;99.90;;;;;;5049668;28;20053;-76
2021/12/26 04:24:10;;;;;;;4.72;2.53;;;-5.50;99.90;;;;;;5050422;28;19943;-76
2021/12/26 04:26:36;;;;;;;;;;;-6.80;99.90;;;;;;5015938;28;20128;-76
2021/12/26 04:29:03;;;;;;;3.83;2.08;;;-6.90;99.90;;;;;;5033099;28;20428;-79
2021/12/26 04:31:29;;;;;;;6.50;2.20;;;-6.80;99.90;;;;;;5049436;28;20109;-77
2021/12/26 04:33:54;;;;;;;;;;;-6.70;99.90;;;;;;5022146;28;20120;-77
2021/12/26 04:36:21;;;;;;;5.18;2.47;;;-6.80;99.90;;;;;;5011697;28;19928;-76
2021/12/26 04:38:47;;;;;;;5.22;2.28;;;-6.80;99.90;;;;;;5019850;28;20299;-77
2021/12/26 04:41:13;;;;;;;;;;;-6.80;99.90;;;;;;5049936;28;20049;-76
2021/12/26 04:43:38;;;;;;;7.13;2.40;;;-6.80;99.90;;;;;;5050559;28;20038;-76
2021/12/26 04:46:06;;;;;;;6.40;2.33;;;-6.80;99.90;;;;;;5031874;28;20061;-78
2021/12/26 04:48:37;;;;;;;5.35;2.63;;;-6.80;99.90;;;;;;5050619;28;20115;-77
2021/12/26 04:51:04;;;;;;;5.30;2.40;;;-6.80;99.90;;;;;;5039930;28;20479;-79
2021/12/26 04:53:30;;;;;;;5.38;2.38;;;-6.80;99.90;;;;;;5030213;28;20050;-76
2021/12/26 04:55:56;;;;;;;4.70;2.65;;;-6.70;99.90;;;;;;5012582;28;20065;-76
2021/12/26 04:58:22;;;;;;;;;;;-6.80;99.90;;;;;;5030437;28;20047;-76
2021/12/26 05:00:48;;;;;;;4.35;2.65;;;-6.70;99.90;;;;;;5012847;28;20606;-76
2021/12/26 05:03:13;;;;;;;;;;;-6.80;99.90;;;;;;5037610;28;20102;-76
2021/12/26 05:05:39;;;;;;;6.95;2.40;;;-6.80;99.90;;;;;;5008998;28;20366;-76
2021/12/26 05:08:06;;;;;;;;;;;-6.80;99.90;;;;;;5012751;28;20487;-80
2021/12/26 05:10:32;;;;;;;6.95;3.00;;;-6.80;99.90;;;;;;5012228;28;20019;-76
2021/12/26 05:12:59;;;;;;;6.97;2.88;;;-6.80;99.90;;;;;;5013003;28;20081;-76
2021/12/26 05:15:27;;;;;;;6.35;2.47;;;-6.80;99.90;;;;;;5029635;28;20517;-76
2021/12/26 05:17:53;;;;;;;6.35;2.72;;;-5.30;99.90;;;;;;5015671;28;20076;-76
2021/12/26 05:20:21;;;;;;;5.85;2.80;;;-6.80;99.90;;;;;;5030700;28;20115;-77
2021/12/26 05:22:48;;;;;;;5.57;2.90;;;-6.90;99.90;;;;;;5018213;28;20057;-77
2021/12/26 05:25:14;;;;;;;7.28;2.65;;;-6.80;99.90;;;;;;5012315;28;20104;-76
2021/12/26 05:27:40;;;;;;;5.07;2.30;;;-6.80;99.90;;;;;;5012399;28;20045;-76
2021/12/26 05:30:11;;;;;;;6.90;3.10;;;-6.80;99.90;;;;;;5031483;28;20461;-79
2021/12/26 05:32:37;;;;;;;7.30;3.03;;;-6.80;99.90;;;;;;5012716;28;20089;-77
2021/12/26 05:35:04;;;;;;;8.15;2.83;;;-6.80;99.90;;;;;;5029338;28;20084;-78
2021/12/26 05:37:30;;;;;;;7.70;2.83;;;-6.80;99.90;;;;;;5047420;28;20513;-77
2021/12/26 05:39:56;;;;;;;;;;;-6.70;99.90;;;;;;5036658;28;20132;-76
2021/12/26 05:42:23;;;;;;;5.57;2.45;;;-6.70;99.90;;;;;;5034989;28;20035;-77
2021/12/26 05:44:49;;;;;;;6.43;3.45;;;-6.70;99.90;;;;;;5036042;28;20052;-76
2021/12/26 05:47:14;;;;;;;;;;;-6.70;99.90;;;;;;5034975;28;20517;-76
2021/12/26 05:49:41;;;;;;;6.88;2.95;;;-6.70;99.90;;;;;;5051426;28;20389;-76
2021/12/26 05:52:07;;;;;;;8.70;2.80;;;-6.70;99.90;;;;;;4998235;28;20103;-77
2021/12/26 05:54:33;;;;;;;4.13;2.25;;;-6.70;99.90;;;;;;5033601;28;20509;-77
2021/12/26 05:57:00;;;;;;;6.03;2.70;;;-6.70;99.90;;;;;;5033189;28;20105;-76
2021/12/26 05:59:26;;;;;;;5.32;2.30;;;-6.70;99.90;;;;;;5033094;28;20053;-76
2021/12/26 06:01:51;;;;;;;;;;;-6.60;99.90;;;;;;5033109;28;20052;-79
2021/12/26 06:04:17;;;;;;;7.72;2.75;;;-6.70;99.90;;;;;;5029888;28;19925;-77
2021/12/26 06:06:46;;;;;;;;;;;-6.70;99.90;;;;;;5052519;28;20049;-76
2021/12/26 06:09:11;;;;;;;7.47;3.22;;;-6.70;99.90;;;;;;5034879;28;19959;-79
2021/12/26 06:11:37;;;;;;;;;;;-6.70;99.90;;;;;;5035307;28;20041;-76
2021/12/26 06:14:03;;;;;;;9.10;2.85;;;-6.70;99.90;;;;;;5053402;28;19999;-76
2021/12/26 06:16:28;;;;;;;;;;;-6.70;99.90;;;;;;5034978;28;20056;-76
2021/12/26 06:18:54;;;;;;;4.93;2.90;;;-6.70;99.90;;;;;;5035403;28;20382;-76
2021/12/26 06:21:20;;;;;;;;;;;-6.70;99.90;;;;;;5029420;28;20136;-77
2021/12/26 06:23:50;;;;;;;8.70;2.65;;;-6.70;99.90;;;;;;5035584;28;19924;-76
2021/12/26 06:26:17;;;;;;;5.70;2.42;;;-6.70;99.90;;;;;;5033627;28;20051;-76
2021/12/26 06:28:43;;;;;;;7.28;2.60;;;-6.70;99.90;;;;;;5051590;28;20083;-77
2021/12/26 06:31:09;;;;;;;;;;;-6.70;99.90;;;;;;5044048;28;20045;-76
2021/12/26 06:33:34;;;;;;;5.35;2.80;;;-6.70;99.90;;;;;;5015969;28;19921;-76
2021/12/26 06:36:00;;;;;;;;;;;-6.70;99.90;;;;;;5014907;28;20053;-76
2021/12/26 06:38:26;;;;;;;5.63;2.60;;;-6.70;99.90;;;;;;5014404;28;19935;-76
2021/12/26 06:40:51;;;;;;;;;;;-6.70;99.90;;;;;;5052435;28;20085;-76
2021/12/26 06:43:17;;;;;;;4.93;2.47;;;-6.70;99.90;;;;;;5034661;28;19983;-77
2021/12/26 06:45:43;;;;;;;;;;;-6.70;99.90;;;;;;5034869;28;20057;-76
2021/12/26 06:48:09;;;;;;;5.93;2.90;;;-6.70;99.90;;;;;;5033568;28;19921;-76
2021/12/26 06:50:36;;;;;;;;;;;-6.00;99.90;;;;;;5017535;28;20041;-76
2021/12/26 06:53:03;;;;;;;4.95;2.83;;;-6.70;99.90;;;;;;5032225;28;19932;-77
2021/12/26 06:55:28;;;;;;;8.20;2.95;;;-6.70;99.90;;;;;;4998068;28;20053;-76
2021/12/26 06:57:54;;;;;;;;;;;-6.70;99.90;;;;;;5015402;28;20107;-77
2021/12/26 07:00:20;;;;;;;7.07;3.00;;;-6.70;99.90;;;;;;5031711;28;19925;-76
2021/12/26 07:02:46;;;;;;;5.07;2.38;;;-6.70;99.90;;;;;;5032356;28;20453;-76
2021/12/26 07:05:12;;;;;;;;;;;-6.70;99.90;;;;;;5031804;28;20048;-76
2021/12/26 07:07:39;;;;;;;4.90;2.87;;;-6.80;99.90;;;;;;5013858;28;19968;-76
2021/12/26 07:10:06;;;;;;;11.73;3.10;;;-6.80;99.90;;;;;;5033734;28;20121;-77
2021/12/26 07:12:31;;;;;;;6.70;3.25;;;-6.70;99.90;;;;;;5031162;28;20045;-76
2021/12/26 07:14:57;;;;;;;;;;;-6.70;99.90;;;;;;5014877;28;20514;-77
2021/12/26 07:17:22;;;;;;;5.55;2.90;;;-5.40;99.90;;;;;;5031528;28;20011;-76
2021/12/26 07:19:48;;;;;;;;;;;-6.80;99.90;;;;;;4998398;28;20053;-77
2021/12/26 07:22:14;;;;;;;3.80;2.28;;;-6.80;99.90;;;;;;5012910;28;19929;-76
2021/12/26 07:24:44;;;;;;;;;;;-6.80;99.90;;;;;;5014259;28;20041;-77
2021/12/26 07:27:18;;;;;;;4.93;2.70;;;-6.80;99.90;;;;;;5014157;28;19921;-77
2021/12/26 07:29:44;;;;;;;8.23;3.05;;;-6.80;99.90;;;;;;5031324;28;20056;-76
2021/12/26 07:32:10;;;;;;;;;;;-6.80;99.90;;;;;;5014497;28;20041;-77
2021/12/26 07:34:36;;;;;;;4.53;2.72;;;-6.80;99.90;;;;;;5031307;28;19929;-76
2021/12/26 07:37:02;;;;;;;;;;;-6.90;99.90;;;;;;5030808;28;20093;-76
2021/12/26 07:39:28;;;;;;;5.27;3.10;;;-6.70;99.90;;;;;;5013597;28;19968;-77
2021/12/26 07:41:54;;;;;;;;;;;-6.70;99.90;;;;;;5014137;28;20129;-76
2021/12/26 07:44:20;;;;;;;8.50;3.40;;;-6.80;99.90;;;;;;5031627;28;19936;-81
2021/12/26 07:46:45;;;;;;;;;;;-6.70;99.90;;;;;;5030988;28;20092;-76
2021/12/26 07:49:11;;;;;;;9.80;4.00;;;-6.70;99.90;;;;;;5014068;28;20286;-77
2021/12/26 07:51:37;;;;;;;;;;;-6.70;99.90;;;;;;5020776;28;20521;-76
2021/12/26 07:54:03;;;;;;;7.25;3.17;;;-6.70;99.90;;;;;;5033703;28;19924;-76
2021/12/26 07:56:29;;;;;;;;;;;-6.70;99.90;;;;;;5023279;28;20060;-76
2021/12/26 07:58:55;;;;;;;11.35;3.40;;;-6.70;99.90;;;;;;5031256;28;19925;-77
2021/12/26 08:01:21;;;;;;;;;;;-6.70;99.90;;;;;;5039462;28;20402;-80
2021/12/26 08:03:47;;;;;;;5.25;3.03;;;-6.70;99.90;;;;;;5040403;28;20003;-76
2021/12/26 08:06:18;;;;;;;9.23;3.47;;;-6.70;99.90;;;;;;5011813;28;20503;-77
2021/12/26 08:08:45;;;;;;;7.13;3.45;;;-6.60;99.90;;;;;;5013220;28;20049;-77
2021/12/26 08:11:12;;;;;;;9.18;3.42;;;-6.40;99.90;;;;;;5002042;28;20065;-77
2021/12/26 08:13:37;;;;;;;7.32;3.13;;;-6.70;99.90;;;;;;5011519;28;20150;-76
2021/12/26 08:16:03;;;;;;;;;;;-6.60;99.90;;;;;;5013908;28;20089;-77
2021/12/26 08:18:29;;;;;;;6.93;3.10;;;-6.60;99.90;;;;;;5030379;28;20358;-77
2021/12/26 08:20:55;;;;;;;;;;;-6.60;99.90;;;;;;5030200;28;20053;-77
2021/12/26 08:23:20;;;;;;;11.57;3.63;;;-6.50;99.90;;;;;;5013108;28;20370;-76
2021/12/26 08:25:46;;;;;;;;;;;-6.50;99.90;;;;;;5012768;28;20045;-76
2021/12/26 08:28:16;;;;;;;7.40;3.85;;;-6.50;99.90;;;;;;4997150;28;19924;-77
2021/12/26 08:30:43;;;;;;;7.95;3.60;;;-6.50;99.90;;;;;;5030042;28;20132;-76
2021/12/26 08:33:09;;;;;;;9.27;3.97;;;-6.40;99.90;;;;;;5029641;28;20547;-76
2021/12/26 08:35:35;;;;;;;;;;;-6.40;99.90;;;;;;5012042;28;20125;-76
2021/12/26 08:38:01;;;;;;;7.90;3.28;;;-6.30;99.90;;;;;;5030428;28;20008;-77
2021/12/26 08:40:27;;;;;;;4.35;2.63;;;-6.30;99.90;;;;;;5029595;28;20053;-79
2021/12/26 08:42:53;;;;;;;;;;;-6.30;99.90;;;;;;5031045;28;20392;-77
2021/12/26 08:45:19;;;;;;;7.35;3.15;;;-6.20;99.90;;;;;;5012580;28;19967;-77
2021/12/26 08:47:46;;;;;;;6.88;3.08;;;-6.20;99.90;;;;;;5012437;28;20826;-77
2021/12/26 08:50:12;;;;;;;6.95;3.55;;;-6.20;99.90;;;;;;5029575;28;20122;-76
2021/12/26 08:52:38;;;;;;;;;;;-6.10;99.90;;;;;;5012211;28;20091;-76
2021/12/26 08:55:04;;;;;;;6.78;3.15;;;-6.00;99.90;;;;;;5040420;28;19921;-77
2021/12/26 08:57:32;;;;;;;6.75;3.65;;;-6.00;99.90;;;;;;5030546;28;20128;-76
2021/12/26 08:59:58;;;;;;;6.53;3.03;;;-6.00;99.90;;;;;;5030466;28;20136;-77
2021/12/26 09:02:24;;;;;;;6.78;3.45;;;-5.90;99.90;;;;;;5012890;28;20052;-77
2021/12/26 09:04:50;;;;;;;7.97;3.53;;;-5.80;99.90;;;;;;5029877;28;20483;-77
2021/12/26 09:07:16;;;;;;;;;;;-5.80;99.90;;;;;;5011960;28;20064;-77
2021/12/26 09:09:42;;;;;;;7.10;2.85;;;-5.80;99.90;;;;;;5012296;28;19925;-77
2021/12/26 09:12:08;;;;;;;;;;;-5.70;99.90;;;;;;5014580;28;20049;-76
2021/12/26 09:14:34;;;;;;;8.40;3.75;;;-5.70;99.90;;;;;;5037352;28;19956;-76
2021/12/26 09:17:01;;;;;;;7.80;3.58;;;-5.60;99.90;;;;;;5040499;28;20124;-77
2021/12/26 09:19:28;;;;;;;9.68;3.40;;;-5.60;99.90;;;;;;5016809;28;20103;-77
2021/12/26 09:21:55;;;;;;;11.13;3.63;;;-5.50;99.90;;;;;;4998332;28;20088;-77
2021/12/26 09:24:21;;;;;;;8.85;3.78;;;-5.50;99.90;;;;;;5037281;28;20048;-77
2021/12/26 09:26:47;;;;;;;;;;;-5.40;99.90;;;;;;5036030;28;20037;-77
2021/12/26 09:29:12;;;;;;;8.60;3.35;;;-5.40;99.90;;;;;;5021792;28;19987;-78
2021/12/26 09:31:38;;;;;;;;;;;-5.30;99.90;;;;;;5040166;28;20072;-76
2021/12/26 09:34:04;;;;;;;10.15;3.22;;;-5.30;99.90;;;;;;5016605;28;19928;-76
2021/12/26 09:36:30;;;;;;;10.27;4.03;;;-5.20;99.90;;;;;;5014898;28;20059;-76
2021/12/26 09:38:55;;;;;;;;;;;-5.20;99.90;;;;;;5053776;28;20505;-77
2021/12/26 09:41:21;;;;;;;11.15;3.78;;;-5.10;99.90;;;;;;5035376;28;20027;-76
2021/12/26 09:43:47;;;;;;;;;;;-5.10;99.90;;;;;;5053889;28;20049;-76
2021/12/26 09:46:13;;;;;;;6.88;3.35;;;-5.00;99.90;;;;;;5052055;28;20522;-77
2021/12/26 09:48:39;;;;;;;7.05;3.60;;;-4.90;99.90;;;;;;5035291;28;20048;-76
2021/12/26 09:51:05;;;;;;;7.95;3.42;;;-4.80;99.90;;;;;;5034730;28;20049;-76
2021/12/26 09:53:40;;;;;;;;;;;-4.80;99.90;;;;;;5003373;28;20041;-77
2021/12/26 09:56:07;;;;;;;9.73;4.05;;;-4.70;99.90;;;;;;5035302;28;19954;-77
2021/12/26 09:58:35;;;;;;;8.68;4.03;;;-4.60;99.90;;;;;;5020091;28;20398;-76
2021/12/26 10:01:02;;;;;;;8.10;3.58;;;-4.60;99.90;;;;;;5031806;28;20084;-75
2021/12/26 10:03:34;;;;;;;7.75;4.15;;;-4.50;99.90;;;;;;5015712;28;20053;-76
2021/12/26 10:06:12;;;;;;;9.90;4.18;;;-4.40;99.90;;;;;;5013692;28;20234;-77
2021/12/26 10:09:02;;;;;;;7.60;3.70;;;-4.40;99.90;;;;;;5002917;28;20529;-79
2021/12/26 10:11:31;;;;;;;9.05;3.92;;;-3.90;99.90;;;;;;5027636;28;20053;-76
2021/12/26 10:14:09;;;;;;;7.90;3.42;;;-4.30;99.90;;;;;;5031610;28;20068;-76
2021/12/26 10:16:40;;;;;;;10.90;4.18;;;-4.20;99.90;;;;;;5050760;28;20500;-76
2021/12/26 10:19:06;;;;;;;10.10;4.10;;;-4.10;99.90;;;;;;5017011;28;20561;-76
2021/12/26 10:21:38;;;;;;;9.10;3.58;;;-4.00;99.90;;;;;;5046572;28;20048;-76
2021/12/26 10:24:07;;;;;;;13.88;4.38;;;-3.90;99.90;;;;;;5013530;28;20041;-76
2021/12/26 10:26:37;;;;;;;7.80;3.63;;;-3.90;99.90;;;;;;5014500;28;20056;-76
2021/12/26 10:29:09;;;;;;;7.30;3.65;;;-3.80;99.90;;;;;;5019380;28;20041;-76
2021/12/26 10:31:36;;;;;;;7.53;4.03;;;-3.70;99.90;;;;;;5018088;28;20040;-77
2021/12/26 10:34:03;;;;;;;7.63;3.78;;;-3.60;99.90;;;;;;5027217;28;20044;-77
2021/12/26 10:36:29;;;;;;;7.72;3.72;;;-3.60;99.90;;;;;;5033172;28;20061;-77
2021/12/26 10:39:17;;;;;;;;;;;-3.50;99.90;;;;;;5033136;28;20040;-77
2021/12/26 10:41:46;;;;;;;10.73;4.63;;;-3.40;99.90;;;;;;5032460;28;20336;-77
2021/12/26 10:44:19;;;;;;;8.68;4.32;;;-3.30;99.90;;;;;;5034689;28;20552;-77
2021/12/26 10:46:49;;;;;;;11.88;3.45;;;-3.30;99.90;;;;;;5033893;28;20057;-76
2021/12/26 10:49:22;;;;;;;11.02;4.15;;;-3.20;99.90;;;;;;5020780;28;20076;-77
2021/12/26 10:51:48;;;;;;;9.32;4.03;;;-3.10;99.90;;;;;;5034305;28;20065;-77
2021/12/26 10:54:20;;;;;;;9.63;4.15;;;-3.00;99.90;;;;;;5017512;28;20084;-77
2021/12/26 10:57:13;;;;;;;10.68;4.07;;;-3.00;99.90;;;;;;5014582;28;20053;-77
2021/12/26 10:59:43;;;;;;;8.75;4.13;;;-2.90;99.90;;;;;;5014067;28;20053;-76
2021/12/26 11:02:10;;;;;;;9.75;4.20;;;-2.80;99.90;;;;;;5014957;28;20093;-77
2021/12/26 11:04:37;;;;;;;9.85;4.20;;;-2.70;99.90;;;;;;5032437;28;20057;-77
2021/12/26 11:07:08;;;;;;;10.02;4.70;;;-2.60;99.90;;;;;;5014503;28;20045;-77
2021/12/26 11:09:35;;;;;;;9.82;4.90;;;-2.50;99.90;;;;;;5033598;28;20513;-79
2021/12/26 11:12:07;;;;;;;8.48;4.00;;;-2.30;99.90;;;;;;5045644;28;20071;-77
2021/12/26 11:14:53;;;;;;;9.93;4.57;;;-2.30;99.90;;;;;;5021869;28;20061;-79
2021/12/26 11:17:37;;;;;;;9.60;4.50;;;-2.20;99.90;;;;;;5035368;28;20053;-77
2021/12/26 11:20:05;;;;;;;7.90;3.95;;;-1.70;99.90;;;;;;5030634;28;20084;-77
2021/12/26 11:22:30;;;;;;;7.22;3.83;;;-1.50;99.90;;;;;;5029266;28;20056;-77
2021/12/26 11:24:59;;;;;;;7.85;4.28;;;-1.00;99.90;;;;;;5032822;28;20049;-78
2021/12/26 11:27:26;;;;;;;7.72;3.92;;;-0.50;99.90;;;;;;5013580;28;20037;-77
2021/12/26 11:29:53;;;;;;;7.43;4.38;;;-0.10;99.90;;;;;;5013568;28;20483;-77
2021/12/26 11:32:24;;;;;;;9.45;4.20;;;0.20;99.90;;;;;;5030532;28;20042;-77
2021/12/26 11:34:50;;;;;;;6.28;3.42;;;0.50;99.90;;;;;;5026322;28;20045;-77
2021/12/26 11:37:16;;;;;;;8.25;3.67;;;1.20;99.90;;;;;;5030790;28;20110;-76
2021/12/26 11:39:44;;;;;;;8.88;3.45;;;0.90;99.90;;;;;;5030984;28;20089;-77
2021/12/26 11:42:37;;;;;;;7.50;4.15;;;0.90;99.90;;;;;;5030467;28;20048;-77
2021/12/26 11:45:07;;;;;;;8.13;4.10;;;1.00;99.90;;;;;;5013724;28;20061;-77
2021/12/26 11:47:41;;;;;;;8.35;3.90;;;1.10;99.90;;;;;;5030926;28;20063;-77
2021/12/26 11:50:34;;;;;;;6.93;3.85;;;1.10;99.90;;;;;;5013134;28;20057;-77
2021/12/26 11:53:24;;;;;;;8.05;3.95;;;1.20;99.90;;;;;;4994556;28;20056;-77
2021/12/26 11:56:04;;;;;;;9.20;4.35;;;1.50;99.90;;;;;;5004159;28;20188;-81
2021/12/26 11:59:09;;;;;;;7.85;3.85;;;1.80;99.90;;;;;;5031832;28;20053;-78
2021/12/26 12:01:43;;;;;;;9.13;3.75;;;2.10;99.90;;;;;;5050515;28;20047;-78
2021/12/26 12:04:23;;;;;;;7.95;3.53;;;1.90;99.90;;;;;;5050558;28;20052;-76
2021/12/26 12:06:54;;;;;;;6.70;3.42;;;1.90;99.90;;;;;;4997503;28;20051;-81
2021/12/26 12:09:41;;;;;;;7.88;4.05;;;1.90;99.90;;;;;;5013234;28;20060;-77
2021/12/26 12:12:11;;;;;;;7.97;3.83;;;2.10;99.90;;;;;;5029878;28;20056;-76
2021/12/26 12:14:57;;;;;;;8.93;4.22;;;3.00;99.90;;;;;;5038939;28;20049;-76
2021/12/26 12:17:31;;;;;;;9.70;4.13;;;2.30;99.90;;;;;;5016707;28;20099;-75
2021/12/26 12:20:20;;;;;;;6.93;3.95;;;2.40;99.90;;;;;;5050323;28;20394;-74
2021/12/26 12:23:04;;;;;;;7.22;3.70;;;2.60;99.90;;;;;;5034963;28;20052;-75
2021/12/26 12:25:36;;;;;;;8.93;4.10;;;2.80;99.90;;;;;;5031245;28;20046;-74
2021/12/26 12:28:07;;;;;;;8.75;4.20;;;3.00;99.90;;;;;;5013253;28;20047;-75
2021/12/26 12:30:33;;;;;;;8.70;4.45;;;3.10;99.90;;;;;;5025540;28;20049;-71
2021/12/26 12:33:11;;;;;;;6.68;3.65;;;3.20;99.90;;;;;;5030024;28;20049;-71
2021/12/26 12:35:58;;;;;;;8.15;4.10;;;3.30;97.40;;;;;;5029988;28;20099;-73
2021/12/26 12:38:32;;;;;;;8.98;4.07;;;3.20;96.00;;;;;;5022605;28;20402;-72
2021/12/26 12:41:00;;;;;;;7.63;3.92;;;3.30;99.90;;;;;;5029664;28;20092;-72
2021/12/26 12:43:28;;;;;;;7.47;3.63;;;3.30;99.90;;;;;;5030388;28;20188;-72
2021/12/26 12:45:54;;;;;;;8.70;4.15;;;3.30;99.90;;;;;;5012806;28;20041;-77
2021/12/26 12:48:25;;;;;;;7.15;4.00;;;3.40;99.90;;;;;;5030219;28;20049;-71
2021/12/26 12:51:13;;;;;;;9.73;4.03;;;3.60;99.90;;;;;;4979490;28;20048;-72
2021/12/26 12:53:57;;;;;;;7.47;4.00;;;3.90;99.90;;;;;;5020521;28;20049;-72
2021/12/26 12:56:35;;;;;;;8.63;4.05;;;4.10;99.10;;;;;;5049776;28;20487;-71
2021/12/26 12:59:16;;;;;;;8.88;3.70;;;4.10;99.50;;;;;;5049532;28;20445;-74
2021/12/26 13:01:51;;;;;;;7.85;3.65;;;4.20;93.40;;;;;;5031377;28;20153;-73
2021/12/26 13:04:22;;;;;;;9.00;4.18;;;4.00;92.00;;;;;;5034121;28;20135;-74
2021/12/26 13:06:50;;;;;;;10.15;4.38;;;4.00;98.60;;;;;;5011463;28;20419;-75
2021/12/26 13:09:15;;;;;;;8.45;4.35;;;4.30;99.40;;;;;;5011438;28;20053;-74
2021/12/26 13:11:41;;;;;;;7.80;3.92;;;4.30;99.30;;;;;;5012400;28;20049;-74
2021/12/26 13:14:07;;;;;;;8.75;4.30;;;4.40;97.50;;;;;;5012061;28;20506;-73
2021/12/26 13:16:33;;;;;;;10.18;4.18;;;4.60;96.00;;;;;;5012789;28;20092;-72